sensor_id;sensor_type;location;lat;lon;timestamp;pressure;altitude;pressure_sealevel;temperature;humidity
28167;BME280;15455;53.376;-6.262;2022-07-04T00:00:35;101787.91;;;11.37;100.00
28167;BME280;15455;53.376;-6.262;2022-07-04T00:03:20;101787.88;;;11.34;100.00
28167;BME280;15455;53.376;-6.262;2022-07-04T00:06:06;101787.88;;;11.34;100.00
28167;BME280;15455;53.376;-6.262;2022-07-04T00:08:51;101778.22;;;11.28;100.00
28167;BME280;15455;53.376;-6.262;2022-07-04T00:11:37;101776.44;;;11.26;100.00
28167;BME280;15455;53.376;-6.262;2022-07-04T00:14:22;101771.16;;;11.20;100.00
28167;BME280;15455;53.376;-6.262;2022-07-04T00:17:08;101776.34;;;11.17;100.00
28167;BME280;15455;53.376;-6.262;2022-07-04T00:19:53;101776.25;;;11.10;100.00
28167;BME280;15455;53.376;-6.262;2022-07-04T00:22:38;101774.53;;;11.09;100.00
28167;BME280;15455;53.376;-6.262;2022-07-04T00:25:24;101774.50;;;11.06;100.00
28167;BME280;15455;53.376;-6.262;2022-07-04T00:28:09;101771.84;;;11.05;100.00
28167;BME280;15455;53.376;-6.262;2022-07-04T00:30:55;101767.47;;;11.02;100.00
28167;BME280;15455;53.376;-6.262;2022-07-04T00:33:41;101774.41;;;11.00;100.00
28167;BME280;15455;53.376;-6.262;2022-07-04T00:36:26;101768.28;;;10.98;100.00
28167;BME280;15455;53.376;-6.262;2022-07-04T00:39:12;101783.06;;;10.96;100.00
28167;BME280;15455;53.376;-6.262;2022-07-04T00:41:57;101783.94;;;10.97;100.00
28167;BME280;15455;53.376;-6.262;2022-07-04T00:44:43;101781.34;;;10.97;100.00
28167;BME280;15455;53.376;-6.262;2022-07-04T00:47:29;101770.91;;;10.98;100.00
28167;BME280;15455;53.376;-6.262;2022-07-04T00:50:14;101778.78;;;11.01;100.00
28167;BME280;15455;53.376;-6.262;2022-07-04T00:53:01;101773.59;;;11.06;100.00
28167;BME280;15455;53.376;-6.262;2022-07-04T00:55:47;101772.75;;;11.08;100.00
28167;BME280;15455;53.376;-6.262;2022-07-04T00:58:33;101776.25;;;11.10;100.00
28167;BME280;15455;53.376;-6.262;2022-07-04T01:01:20;101766.75;;;11.14;100.00
28167;BME280;15455;53.376;-6.262;2022-07-04T01:04:07;101767.59;;;11.15;100.00
28167;BME280;15455;53.376;-6.262;2022-07-04T01:06:53;101770.25;;;11.18;100.00
28167;BME280;15455;53.376;-6.262;2022-07-04T01:09:38;101768.53;;;11.20;100.00
28167;BME280;15455;53.376;-6.262;2022-07-04T01:12:25;101769.44;;;11.23;100.00
28167;BME280;15455;53.376;-6.262;2022-07-04T01:15:11;101772.06;;;11.25;100.00
28167;BME280;15455;53.376;-6.262;2022-07-04T01:17:56;101773.84;;;11.26;100.00
28167;BME280;15455;53.376;-6.262;2022-07-04T01:20:42;101771.25;;;11.29;100.00
28167;BME280;15455;53.376;-6.262;2022-07-04T01:23:28;101767.78;;;11.30;100.00
28167;BME280;15455;53.376;-6.262;2022-07-04T01:26:13;101756.50;;;11.33;100.00
28167;BME280;15455;53.376;-6.262;2022-07-04T01:28:59;101765.19;;;11.33;100.00
28167;BME280;15455;53.376;-6.262;2022-07-04T01:31:44;101764.34;;;11.34;100.00
28167;BME280;15455;53.376;-6.262;2022-07-04T01:34:29;101763.44;;;11.34;100.00
28167;BME280;15455;53.376;-6.262;2022-07-04T01:37:15;101762.59;;;11.35;100.00
28167;BME280;15455;53.376;-6.262;2022-07-04T01:40:00;101759.09;;;11.33;100.00
28167;BME280;15455;53.376;-6.262;2022-07-04T01:42:46;101753.88;;;11.31;100.00
28167;BME280;15455;53.376;-6.262;2022-07-04T01:45:32;101753.88;;;11.31;100.00
28167;BME280;15455;53.376;-6.262;2022-07-04T01:48:20;101751.25;;;11.31;100.00
28167;BME280;15455;53.376;-6.262;2022-07-04T01:51:05;101751.28;;;11.33;100.00
28167;BME280;15455;53.376;-6.262;2022-07-04T01:53:51;101739.91;;;11.32;100.00
28167;BME280;15455;53.376;-6.262;2022-07-04T01:56:36;101746.03;;;11.33;100.00
28167;BME280;15455;53.376;-6.262;2022-07-04T01:59:22;101738.19;;;11.33;100.00
28167;BME280;15455;53.376;-6.262;2022-07-04T02:02:27;101738.19;;;11.33;100.00
28167;BME280;15455;53.376;-6.262;2022-07-04T02:05:12;101725.13;;;11.33;100.00
28167;BME280;15455;53.376;-6.262;2022-07-04T02:07:58;101728.59;;;11.32;100.00
28167;BME280;15455;53.376;-6.262;2022-07-04T02:10:44;101735.56;;;11.29;100.00
28167;BME280;15455;53.376;-6.262;2022-07-04T02:13:30;101736.38;;;11.25;100.00
28167;BME280;15455;53.376;-6.262;2022-07-04T02:16:15;101721.56;;;11.24;100.00
28167;BME280;15455;53.376;-6.262;2022-07-04T02:19:00;101719.78;;;11.20;100.00
28167;BME280;15455;53.376;-6.262;2022-07-04T02:21:46;101728.47;;;11.21;100.00
28167;BME280;15455;53.376;-6.262;2022-07-04T02:24:31;101725.84;;;11.18;100.00
28167;BME280;15455;53.376;-6.262;2022-07-04T02:27:17;101713.69;;;11.20;100.00
28167;BME280;15455;53.376;-6.262;2022-07-04T02:30:03;101717.13;;;11.17;100.00
28167;BME280;15455;53.376;-6.262;2022-07-04T02:32:49;101717.97;;;11.16;100.00
28167;BME280;15455;53.376;-6.262;2022-07-04T02:35:35;101713.56;;;11.12;100.00
28167;BME280;15455;53.376;-6.262;2022-07-04T02:38:20;101704.88;;;11.11;100.00
28167;BME280;15455;53.376;-6.262;2022-07-04T02:41:06;101707.47;;;11.10;100.00
28167;BME280;15455;53.376;-6.262;2022-07-04T02:43:51;101708.34;;;11.10;100.00
28167;BME280;15455;53.376;-6.262;2022-07-04T02:46:37;101691.81;;;11.11;100.00
28167;BME280;15455;53.376;-6.262;2022-07-04T02:49:23;101696.22;;;11.16;100.00
28167;BME280;15455;53.376;-6.262;2022-07-04T02:52:08;101704.91;;;11.16;100.00
28167;BME280;15455;53.376;-6.262;2022-07-04T02:54:54;101698.81;;;11.16;100.00
28167;BME280;15455;53.376;-6.262;2022-07-04T02:57:39;101687.50;;;11.15;100.00
28167;BME280;15455;53.376;-6.262;2022-07-04T03:00:24;101687.44;;;11.10;100.00
28167;BME280;15455;53.376;-6.262;2022-07-04T03:03:10;101695.19;;;11.03;100.00
28167;BME280;15455;53.376;-6.262;2022-07-04T03:05:55;101689.81;;;10.89;100.00
28167;BME280;15455;53.376;-6.262;2022-07-04T03:08:48;101692.28;;;10.76;100.00
28167;BME280;15455;53.376;-6.262;2022-07-04T03:11:33;101694.75;;;10.66;100.00
28167;BME280;15455;53.376;-6.262;2022-07-04T03:14:19;101699.91;;;10.59;100.00
28167;BME280;15455;53.376;-6.262;2022-07-04T03:17:05;101693.78;;;10.54;100.00
28167;BME280;15455;53.376;-6.262;2022-07-04T03:19:51;101702.44;;;10.53;100.00
28167;BME280;15455;53.376;-6.262;2022-07-04T03:22:36;101692.88;;;10.54;100.00
28167;BME280;15455;53.376;-6.262;2022-07-04T03:25:21;101702.47;;;10.55;100.00
28167;BME280;15455;53.376;-6.262;2022-07-04T03:28:10;101704.25;;;10.59;100.00
28167;BME280;15455;53.376;-6.262;2022-07-04T03:30:56;101700.78;;;10.62;100.00
28167;BME280;15455;53.376;-6.262;2022-07-04T03:33:42;101694.75;;;10.64;100.00
28167;BME280;15455;53.376;-6.262;2022-07-04T03:36:27;101702.59;;;10.67;100.00
28167;BME280;15455;53.376;-6.262;2022-07-04T03:39:13;101693.09;;;10.71;100.00
28167;BME280;15455;53.376;-6.262;2022-07-04T03:41:58;101700.09;;;10.73;100.00
28167;BME280;15455;53.376;-6.262;2022-07-04T03:44:44;101703.59;;;10.75;100.00
28167;BME280;15455;53.376;-6.262;2022-07-04T03:47:30;101709.75;;;10.79;100.00
28167;BME280;15455;53.376;-6.262;2022-07-04T03:50:15;101705.38;;;10.80;100.00
28167;BME280;15455;53.376;-6.262;2022-07-04T03:53:01;101709.78;;;10.84;100.00
28167;BME280;15455;53.376;-6.262;2022-07-04T03:55:47;101703.72;;;10.85;100.00
28167;BME280;15455;53.376;-6.262;2022-07-04T03:58:33;101712.41;;;10.85;100.00
28167;BME280;15455;53.376;-6.262;2022-07-04T04:01:19;101703.72;;;10.85;100.00
28167;BME280;15455;53.376;-6.262;2022-07-04T04:04:05;101709.81;;;10.85;100.00
28167;BME280;15455;53.376;-6.262;2022-07-04T04:07:09;101704.59;;;10.87;100.00
28167;BME280;15455;53.376;-6.262;2022-07-04T04:09:54;101701.13;;;10.86;100.00
28167;BME280;15455;53.376;-6.262;2022-07-04T04:12:40;101708.97;;;10.88;100.00
28167;BME280;15455;53.376;-6.262;2022-07-04T04:15:25;101708.09;;;10.89;100.00
28167;BME280;15455;53.376;-6.262;2022-07-04T04:18:11;101708.97;;;10.88;100.00
28167;BME280;15455;53.376;-6.262;2022-07-04T04:20:56;101703.72;;;10.86;100.00
28167;BME280;15455;53.376;-6.262;2022-07-04T04:23:42;101715.03;;;10.87;100.00
28167;BME280;15455;53.376;-6.262;2022-07-04T04:26:28;101719.38;;;10.85;100.00
28167;BME280;15455;53.376;-6.262;2022-07-04T04:29:14;101721.06;;;10.81;100.00
28167;BME280;15455;53.376;-6.262;2022-07-04T04:31:59;101720.19;;;10.79;100.00
28167;BME280;15455;53.376;-6.262;2022-07-04T04:34:45;101715.81;;;10.80;100.00
28167;BME280;15455;53.376;-6.262;2022-07-04T04:37:31;101712.38;;;10.81;100.00
28167;BME280;15455;53.376;-6.262;2022-07-04T04:40:16;101719.28;;;10.78;100.00
28167;BME280;15455;53.376;-6.262;2022-07-04T04:43:02;101714.97;;;10.81;100.00
28167;BME280;15455;53.376;-6.262;2022-07-04T04:45:48;101721.94;;;10.83;100.00
28167;BME280;15455;53.376;-6.262;2022-07-04T04:48:33;101725.50;;;10.87;100.00
28167;BME280;15455;53.376;-6.262;2022-07-04T04:51:19;101710.75;;;10.92;100.00
28167;BME280;15455;53.376;-6.262;2022-07-04T04:54:04;101723.84;;;10.95;100.00
28167;BME280;15455;53.376;-6.262;2022-07-04T04:56:50;101723.00;;;10.98;100.00
28167;BME280;15455;53.376;-6.262;2022-07-04T04:59:35;101736.13;;;11.01;100.00
28167;BME280;15455;53.376;-6.262;2022-07-04T05:02:21;101742.22;;;11.03;100.00
28167;BME280;15455;53.376;-6.262;2022-07-04T05:05:07;101750.13;;;11.09;100.00
28167;BME280;15455;53.376;-6.262;2022-07-04T05:07:53;101749.28;;;11.11;100.00
28167;BME280;15455;53.376;-6.262;2022-07-04T05:10:39;101749.31;;;11.15;100.00
28167;BME280;15455;53.376;-6.262;2022-07-04T05:13:25;101750.25;;;11.20;100.00
28167;BME280;15455;53.376;-6.262;2022-07-04T05:16:10;101754.69;;;11.25;100.00
28167;BME280;15455;53.376;-6.262;2022-07-04T05:18:56;101753.00;;;11.32;100.00
28167;BME280;15455;53.376;-6.262;2022-07-04T05:21:41;101744.38;;;11.41;100.00
28167;BME280;15455;53.376;-6.262;2022-07-04T05:24:27;101737.47;;;11.47;100.00
28167;BME280;15455;53.376;-6.262;2022-07-04T05:27:12;101741.84;;;11.50;100.00
28167;BME280;15455;53.376;-6.262;2022-07-04T05:29:58;101741.09;;;11.60;100.00
28167;BME280;15455;53.376;-6.262;2022-07-04T05:32:43;101740.31;;;11.72;100.00
28167;BME280;15455;53.376;-6.262;2022-07-04T05:35:29;101735.22;;;11.88;100.00
28167;BME280;15455;53.376;-6.262;2022-07-04T05:38:15;101735.31;;;11.97;100.00
28167;BME280;15455;53.376;-6.262;2022-07-04T05:41:01;101732.78;;;12.08;100.00
28167;BME280;15455;53.376;-6.262;2022-07-04T05:43:47;101728.44;;;12.11;100.00
28167;BME280;15455;53.376;-6.262;2022-07-04T05:46:36;101730.19;;;12.09;100.00
28167;BME280;15455;53.376;-6.262;2022-07-04T05:49:22;101731.97;;;12.13;100.00
28167;BME280;15455;53.376;-6.262;2022-07-04T05:52:08;101729.34;;;12.16;100.00
28167;BME280;15455;53.376;-6.262;2022-07-04T05:54:54;101732.00;;;12.21;100.00
28167;BME280;15455;53.376;-6.262;2022-07-04T05:57:39;101733.78;;;12.24;100.00
28167;BME280;15455;53.376;-6.262;2022-07-04T06:00:29;101741.63;;;12.27;100.00
28167;BME280;15455;53.376;-6.262;2022-07-04T06:03:14;101746.97;;;12.41;100.00
28167;BME280;15455;53.376;-6.262;2022-07-04T06:06:05;101748.72;;;12.43;100.00
28167;BME280;15455;53.376;-6.262;2022-07-04T06:08:51;101752.22;;;12.45;100.00
28167;BME280;15455;53.376;-6.262;2022-07-04T06:11:36;101749.63;;;12.53;100.00
28167;BME280;15455;53.376;-6.262;2022-07-04T06:14:22;101751.41;;;12.54;100.00
28167;BME280;15455;53.376;-6.262;2022-07-04T06:17:07;101746.16;;;12.49;100.00
28167;BME280;15455;53.376;-6.262;2022-07-04T06:19:53;101741.78;;;12.50;100.00
28167;BME280;15455;53.376;-6.262;2022-07-04T06:22:44;101730.47;;;12.60;100.00
28167;BME280;15455;53.376;-6.262;2022-07-04T06:25:30;101736.63;;;12.62;100.00
28167;BME280;15455;53.376;-6.262;2022-07-04T06:28:16;101728.72;;;12.58;100.00
28167;BME280;15455;53.376;-6.262;2022-07-04T06:31:22;101730.53;;;12.71;100.00
28167;BME280;15455;53.376;-6.262;2022-07-04T06:34:08;101751.53;;;12.79;100.00
28167;BME280;15455;53.376;-6.262;2022-07-04T06:37:12;101752.38;;;12.78;100.00
28167;BME280;15455;53.376;-6.262;2022-07-04T06:39:58;101751.50;;;12.77;100.00
28167;BME280;15455;53.376;-6.262;2022-07-04T06:42:43;101767.16;;;12.66;100.00
28167;BME280;15455;53.376;-6.262;2022-07-04T06:45:29;101760.13;;;12.53;100.00
28167;BME280;15455;53.376;-6.262;2022-07-04T06:48:15;101756.63;;;12.51;100.00
28167;BME280;15455;53.376;-6.262;2022-07-04T06:51:02;101769.72;;;12.48;100.00
28167;BME280;15455;53.376;-6.262;2022-07-04T06:53:49;101767.97;;;12.53;100.00
28167;BME280;15455;53.376;-6.262;2022-07-04T06:56:34;101768.06;;;12.64;100.00
28167;BME280;15455;53.376;-6.262;2022-07-04T06:59:20;101771.63;;;12.80;100.00
28167;BME280;15455;53.376;-6.262;2022-07-04T07:02:06;101785.59;;;12.88;100.00
28167;BME280;15455;53.376;-6.262;2022-07-04T07:04:54;101783.91;;;12.93;100.00
28167;BME280;15455;53.376;-6.262;2022-07-04T07:07:40;101783.88;;;12.89;100.00
28167;BME280;15455;53.376;-6.262;2022-07-04T07:10:26;101780.38;;;12.90;100.00
28167;BME280;15455;53.376;-6.262;2022-07-04T07:13:12;101784.75;;;12.95;100.00
28167;BME280;15455;53.376;-6.262;2022-07-04T07:15:57;101778.66;;;12.90;100.00
28167;BME280;15455;53.376;-6.262;2022-07-04T07:18:45;101785.59;;;12.85;100.00
28167;BME280;15455;53.376;-6.262;2022-07-04T07:21:31;101778.63;;;12.87;100.00
28167;BME280;15455;53.376;-6.262;2022-07-04T07:24:17;101776.03;;;12.95;100.00
28167;BME280;15455;53.376;-6.262;2022-07-04T07:27:02;101796.13;;;12.94;100.00
28167;BME280;15455;53.376;-6.262;2022-07-04T07:29:48;101801.31;;;12.82;100.00
28167;BME280;15455;53.376;-6.262;2022-07-04T07:32:34;101805.44;;;12.41;100.00
28167;BME280;15455;53.376;-6.262;2022-07-04T07:35:19;101819.97;;;12.02;100.00
28167;BME280;15455;53.376;-6.262;2022-07-04T07:38:05;101824.03;;;11.78;100.00
28167;BME280;15455;53.376;-6.262;2022-07-04T07:40:52;101829.22;;;11.72;100.00
28167;BME280;15455;53.376;-6.262;2022-07-04T07:43:39;101823.91;;;11.63;100.00
28167;BME280;15455;53.376;-6.262;2022-07-04T07:46:25;101829.19;;;11.69;100.00
28167;BME280;15455;53.376;-6.262;2022-07-04T07:49:11;101825.78;;;11.76;100.00
28167;BME280;15455;53.376;-6.262;2022-07-04T07:51:56;101835.47;;;11.85;100.00
28167;BME280;15455;53.376;-6.262;2022-07-04T07:54:41;101827.72;;;11.94;100.00
28167;BME280;15455;53.376;-6.262;2022-07-04T07:57:45;101840.97;;;12.13;100.00
28167;BME280;15455;53.376;-6.262;2022-07-04T08:00:33;101834.09;;;12.26;100.00
28167;BME280;15455;53.376;-6.262;2022-07-04T08:03:38;101825.53;;;12.47;100.00
28167;BME280;15455;53.376;-6.262;2022-07-04T08:06:42;101819.53;;;12.65;100.00
28167;BME280;15455;53.376;-6.262;2022-07-04T08:09:48;101822.28;;;12.86;100.00
28167;BME280;15455;53.376;-6.262;2022-07-04T08:12:34;101817.13;;;12.99;100.00
28167;BME280;15455;53.376;-6.262;2022-07-04T08:15:19;101818.03;;;13.07;100.00
28167;BME280;15455;53.376;-6.262;2022-07-04T08:18:06;101822.47;;;13.25;100.00
28167;BME280;15455;53.376;-6.262;2022-07-04T08:20:52;101822.47;;;13.33;100.00
28167;BME280;15455;53.376;-6.262;2022-07-04T08:23:48;101825.19;;;13.45;100.00
28167;BME280;15455;53.376;-6.262;2022-07-04T08:26:54;101824.34;;;13.65;100.00
28167;BME280;15455;53.376;-6.262;2022-07-04T08:29:40;101833.13;;;13.73;100.00
28167;BME280;15455;53.376;-6.262;2022-07-04T08:32:26;101836.59;;;13.64;100.00
28167;BME280;15455;53.376;-6.262;2022-07-04T08:35:12;101840.97;;;13.65;100.00
28167;BME280;15455;53.376;-6.262;2022-07-04T08:37:58;101833.09;;;13.61;100.00
28167;BME280;15455;53.376;-6.262;2022-07-04T08:40:43;101831.34;;;13.66;100.00
28167;BME280;15455;53.376;-6.262;2022-07-04T08:43:30;101833.13;;;13.71;100.00
28167;BME280;15455;53.376;-6.262;2022-07-04T08:46:23;101831.38;;;13.87;100.00
28167;BME280;15455;53.376;-6.262;2022-07-04T08:49:30;101851.53;;;13.87;100.00
28167;BME280;15455;53.376;-6.262;2022-07-04T08:52:28;101843.59;;;13.61;100.00
28167;BME280;15455;53.376;-6.262;2022-07-04T08:55:15;101844.41;;;13.49;100.00
28167;BME280;15455;53.376;-6.262;2022-07-04T08:58:20;101848.78;;;13.41;100.00
28167;BME280;15455;53.376;-6.262;2022-07-04T09:01:14;101852.22;;;13.32;100.00
28167;BME280;15455;53.376;-6.262;2022-07-04T09:04:01;101840.88;;;13.36;100.00
28167;BME280;15455;53.376;-6.262;2022-07-04T09:06:47;101842.63;;;13.35;97.29
28167;BME280;15455;53.376;-6.262;2022-07-04T09:09:33;101848.78;;;13.47;95.32
28167;BME280;15455;53.376;-6.262;2022-07-04T09:12:18;101847.94;;;13.62;94.00
28167;BME280;15455;53.376;-6.262;2022-07-04T09:15:05;101847.09;;;13.73;91.48
28167;BME280;15455;53.376;-6.262;2022-07-04T09:17:52;101852.38;;;13.92;91.03
28167;BME280;15455;53.376;-6.262;2022-07-04T09:20:37;101839.28;;;14.07;88.51
28167;BME280;15455;53.376;-6.262;2022-07-04T09:23:33;101846.31;;;14.30;89.67
28167;BME280;15455;53.376;-6.262;2022-07-04T09:26:21;101846.31;;;14.32;87.24
28167;BME280;15455;53.376;-6.262;2022-07-04T09:29:07;101852.44;;;14.18;87.84
28167;BME280;15455;53.376;-6.262;2022-07-04T09:31:53;101855.91;;;14.22;89.46
28167;BME280;15455;53.376;-6.262;2022-07-04T09:34:54;101856.78;;;14.42;88.63
28167;BME280;15455;53.376;-6.262;2022-07-04T09:37:50;101853.31;;;14.36;87.09
28167;BME280;15455;53.376;-6.262;2022-07-04T09:40:38;101858.53;;;14.33;87.01
28167;BME280;15455;53.376;-6.262;2022-07-04T09:44:03;101850.66;;;14.28;85.91
28167;BME280;15455;53.376;-6.262;2022-07-04T09:46:49;101862.03;;;14.44;86.36
28167;BME280;15455;53.376;-6.262;2022-07-04T09:49:35;101861.16;;;14.44;82.10
28167;BME280;15455;53.376;-6.262;2022-07-04T09:52:20;101873.41;;;14.55;81.58
28167;BME280;15455;53.376;-6.262;2022-07-04T09:55:06;101873.47;;;14.63;80.38
28167;BME280;15455;53.376;-6.262;2022-07-04T09:57:53;101878.66;;;14.37;80.66
28167;BME280;15455;53.376;-6.262;2022-07-04T10:00:47;101877.78;;;14.19;80.37
28167;BME280;15455;53.376;-6.262;2022-07-04T10:03:34;101872.53;;;14.15;83.00
28167;BME280;15455;53.376;-6.262;2022-07-04T10:06:24;101873.44;;;14.29;81.28
28167;BME280;15455;53.376;-6.262;2022-07-04T10:09:15;101878.66;;;14.40;80.81
28167;BME280;15455;53.376;-6.262;2022-07-04T10:12:01;101876.94;;;14.36;79.51
28167;BME280;15455;53.376;-6.262;2022-07-04T10:14:47;101876.94;;;14.42;80.46
28167;BME280;15455;53.376;-6.262;2022-07-04T10:17:32;101883.91;;;14.55;79.04
28167;BME280;15455;53.376;-6.262;2022-07-04T10:20:18;101889.22;;;14.68;78.47
28167;BME280;15455;53.376;-6.262;2022-07-04T10:23:04;101892.69;;;14.85;78.36
28167;BME280;15455;53.376;-6.262;2022-07-04T10:25:51;101891.81;;;14.89;77.51
28167;BME280;15455;53.376;-6.262;2022-07-04T10:28:40;101893.56;;;14.84;76.12
28167;BME280;15455;53.376;-6.262;2022-07-04T10:31:31;101894.44;;;14.83;78.15
28167;BME280;15455;53.376;-6.262;2022-07-04T10:34:19;101898.84;;;14.78;76.60
28167;BME280;15455;53.376;-6.262;2022-07-04T10:37:04;101896.19;;;14.84;76.85
28167;BME280;15455;53.376;-6.262;2022-07-04T10:39:50;101912.81;;;15.00;77.31
28167;BME280;15455;53.376;-6.262;2022-07-04T10:42:36;101899.66;;;15.02;75.76
28167;BME280;15455;53.376;-6.262;2022-07-04T10:45:31;101898.78;;;14.90;75.44
28167;BME280;15455;53.376;-6.262;2022-07-04T10:48:24;101904.94;;;14.89;75.13
28167;BME280;15455;53.376;-6.262;2022-07-04T10:51:10;101901.38;;;15.10;77.03
28167;BME280;15455;53.376;-6.262;2022-07-04T10:54:02;101905.75;;;15.16;75.92
28167;BME280;15455;53.376;-6.262;2022-07-04T10:56:51;101911.88;;;15.23;74.62
28167;BME280;15455;53.376;-6.262;2022-07-04T10:59:37;101908.31;;;15.35;76.13
28167;BME280;15455;53.376;-6.262;2022-07-04T11:02:29;101910.97;;;15.33;73.35
28167;BME280;15455;53.376;-6.262;2022-07-04T11:05:15;101907.47;;;15.31;72.77
28167;BME280;15455;53.376;-6.262;2022-07-04T11:08:01;101914.44;;;15.44;73.28
28167;BME280;15455;53.376;-6.262;2022-07-04T11:10:48;101920.53;;;15.57;72.13
28167;BME280;15455;53.376;-6.262;2022-07-04T11:20:04;101926.66;;;15.53;73.53
28167;BME280;15455;53.376;-6.262;2022-07-04T11:22:51;101924.06;;;15.42;73.75
28167;BME280;15455;53.376;-6.262;2022-07-04T11:25:39;101930.31;;;15.18;77.10
28167;BME280;15455;53.376;-6.262;2022-07-04T11:28:26;101928.56;;;15.05;78.78
28167;BME280;15455;53.376;-6.262;2022-07-04T11:31:42;101933.78;;;15.25;77.05
28167;BME280;15455;53.376;-6.262;2022-07-04T11:34:34;101931.13;;;15.37;74.33
28167;BME280;15455;53.376;-6.262;2022-07-04T11:37:20;101939.84;;;15.53;76.02
28167;BME280;15455;53.376;-6.262;2022-07-04T11:40:08;101937.16;;;15.62;75.38
28167;BME280;15455;53.376;-6.262;2022-07-04T11:43:12;101944.13;;;15.80;74.16
28167;BME280;15455;53.376;-6.262;2022-07-04T11:46:16;101942.41;;;15.70;75.20
28167;BME280;15455;53.376;-6.262;2022-07-04T11:49:12;101942.50;;;15.47;73.76
28167;BME280;15455;53.376;-6.262;2022-07-04T11:51:57;101943.44;;;15.14;76.18
28167;BME280;15455;53.376;-6.262;2022-07-04T11:54:44;101947.81;;;15.18;77.30
28167;BME280;15455;53.376;-6.262;2022-07-04T11:57:47;101939.06;;;15.20;77.28
28167;BME280;15455;53.376;-6.262;2022-07-04T12:00:33;101940.75;;;15.35;77.61
28167;BME280;15455;53.376;-6.262;2022-07-04T12:03:21;101953.91;;;15.41;75.89
28167;BME280;15455;53.376;-6.262;2022-07-04T12:06:07;101934.63;;;15.35;76.90
28167;BME280;15455;53.376;-6.262;2022-07-04T12:08:59;101947.78;;;15.36;75.90
28167;BME280;15455;53.376;-6.262;2022-07-04T12:15:05;101952.16;;;15.37;79.05
28167;BME280;15455;53.376;-6.262;2022-07-04T12:17:53;101946.94;;;15.31;76.74
28167;BME280;15455;53.376;-6.262;2022-07-04T12:20:39;101943.41;;;15.31;76.37
28167;BME280;15455;53.376;-6.262;2022-07-04T12:23:25;101946.88;;;15.45;75.64
28167;BME280;15455;53.376;-6.262;2022-07-04T12:26:14;101949.47;;;15.59;73.51
28167;BME280;15455;53.376;-6.262;2022-07-04T12:29:00;101947.63;;;15.76;72.32
28167;BME280;15455;53.376;-6.262;2022-07-04T12:31:45;101935.34;;;15.86;70.21
28167;BME280;15455;53.376;-6.262;2022-07-04T12:34:35;101937.00;;;16.01;69.86
28167;BME280;15455;53.376;-6.262;2022-07-04T12:37:21;101944.94;;;15.89;69.57
28167;BME280;15455;53.376;-6.262;2022-07-04T12:40:07;101944.03;;;15.97;69.67
28167;BME280;15455;53.376;-6.262;2022-07-04T12:42:57;101941.38;;;16.02;69.85
28167;BME280;15455;53.376;-6.262;2022-07-04T12:45:54;101942.28;;;15.96;69.48
28167;BME280;15455;53.376;-6.262;2022-07-04T12:48:41;101949.31;;;15.93;69.18
28167;BME280;15455;53.376;-6.262;2022-07-04T12:51:32;101945.75;;;16.08;70.96
28167;BME280;15455;53.376;-6.262;2022-07-04T12:54:21;101946.47;;;16.30;70.51
28167;BME280;15455;53.376;-6.262;2022-07-04T12:57:11;101943.59;;;16.64;68.39
28167;BME280;15455;53.376;-6.262;2022-07-04T12:59:57;101951.94;;;17.11;65.33
28167;BME280;15455;53.376;-6.262;2022-07-04T13:03:04;101949.97;;;17.31;64.41
28167;BME280;15455;53.376;-6.262;2022-07-04T13:05:50;101947.34;;;17.30;64.76
28167;BME280;15455;53.376;-6.262;2022-07-04T13:08:35;101947.50;;;17.16;64.03
28167;BME280;15455;53.376;-6.262;2022-07-04T13:11:21;101944.19;;;16.95;67.05
28167;BME280;15455;53.376;-6.262;2022-07-04T13:14:26;101932.84;;;16.81;65.10
28167;BME280;15455;53.376;-6.262;2022-07-04T13:17:11;101945.91;;;16.98;69.75
28167;BME280;15455;53.376;-6.262;2022-07-04T13:19:57;101942.63;;;16.68;68.67
28167;BME280;15455;53.376;-6.262;2022-07-04T13:22:42;101940.19;;;16.45;70.32
28167;BME280;15455;53.376;-6.262;2022-07-04T13:25:28;101951.59;;;16.48;71.84
28167;BME280;15455;53.376;-6.262;2022-07-04T13:28:13;101949.94;;;16.38;70.35
28167;BME280;15455;53.376;-6.262;2022-07-04T13:30:59;101946.56;;;16.11;70.40
28167;BME280;15455;53.376;-6.262;2022-07-04T13:33:45;101942.91;;;16.36;70.68
28167;BME280;15455;53.376;-6.262;2022-07-04T13:36:31;101950.50;;;16.76;68.08
28167;BME280;15455;53.376;-6.262;2022-07-04T13:39:17;101945.88;;;17.01;67.28
28167;BME280;15455;53.376;-6.262;2022-07-04T13:42:22;101936.50;;;17.54;65.37
28167;BME280;15455;53.376;-6.262;2022-07-04T13:45:27;101933.50;;;17.84;61.98
28167;BME280;15455;53.376;-6.262;2022-07-04T13:48:12;101936.63;;;17.45;60.90
28167;BME280;15455;53.376;-6.262;2022-07-04T13:50:58;101943.53;;;17.56;63.07
28167;BME280;15455;53.376;-6.262;2022-07-04T13:53:44;101939.09;;;17.58;61.79
28167;BME280;15455;53.376;-6.262;2022-07-04T13:56:30;101929.72;;;18.03;61.71
28167;BME280;15455;53.376;-6.262;2022-07-04T13:59:15;101927.59;;;18.26;56.36
28167;BME280;15455;53.376;-6.262;2022-07-04T14:02:01;101922.31;;;18.26;57.82
28167;BME280;15455;53.376;-6.262;2022-07-04T14:04:48;101917.47;;;18.54;57.08
28167;BME280;15455;53.376;-6.262;2022-07-04T14:07:34;101918.91;;;18.73;58.72
28167;BME280;15455;53.376;-6.262;2022-07-04T14:10:19;101914.72;;;18.58;55.91
28167;BME280;15455;53.376;-6.262;2022-07-04T14:13:05;101923.69;;;17.92;56.66
28167;BME280;15455;53.376;-6.262;2022-07-04T14:15:55;101913.84;;;18.03;57.06
28167;BME280;15455;53.376;-6.262;2022-07-04T14:18:40;101911.63;;;18.85;56.59
28167;BME280;15455;53.376;-6.262;2022-07-04T14:21:25;101909.00;;;19.32;54.44
28167;BME280;15455;53.376;-6.262;2022-07-04T14:24:11;101913.63;;;18.73;56.46
28167;BME280;15455;53.376;-6.262;2022-07-04T14:26:56;101903.94;;;18.72;55.43